sensor_id;sensor_type;location;lat;lon;timestamp;temperature;humidity
15656;DHT22;7928;43.614;1.456;2023-05-23T00:00:46;18.50;99.90
15656;DHT22;7928;43.614;1.456;2023-05-23T00:03:16;18.60;99.90
15656;DHT22;7928;43.614;1.456;2023-05-23T00:05:47;18.60;99.90
15656;DHT22;7928;43.614;1.456;2023-05-23T00:08:14;18.60;99.90
15656;DHT22;7928;43.614;1.456;2023-05-23T00:10:41;18.60;99.90
15656;DHT22;7928;43.614;1.456;2023-05-23T00:13:09;18.60;99.90
15656;DHT22;7928;43.614;1.456;2023-05-23T00:15:37;18.60;99.90
15656;DHT22;7928;43.614;1.456;2023-05-23T00:18:07;18.50;99.90
15656;DHT22;7928;43.614;1.456;2023-05-23T00:20:35;18.50;99.90
15656;DHT22;7928;43.614;1.456;2023-05-23T00:23:05;18.50;99.90
15656;DHT22;7928;43.614;1.456;2023-05-23T00:25:33;18.50;99.90
15656;DHT22;7928;43.614;1.456;2023-05-23T00:28:00;18.50;99.90
15656;DHT22;7928;43.614;1.456;2023-05-23T00:30:28;18.40;99.90
15656;DHT22;7928;43.614;1.456;2023-05-23T00:32:55;18.40;99.90
15656;DHT22;7928;43.614;1.456;2023-05-23T00:35:25;18.40;99.90
15656;DHT22;7928;43.614;1.456;2023-05-23T00:37:52;18.40;99.90
15656;DHT22;7928;43.614;1.456;2023-05-23T00:40:20;18.40;99.90
15656;DHT22;7928;43.614;1.456;2023-05-23T00:42:47;18.40;99.90
15656;DHT22;7928;43.614;1.456;2023-05-23T00:45:14;18.30;99.90
15656;DHT22;7928;43.614;1.456;2023-05-23T00:47:42;18.40;99.90
15656;DHT22;7928;43.614;1.456;2023-05-23T00:50:11;18.40;99.90
15656;DHT22;7928;43.614;1.456;2023-05-23T00:52:41;18.30;99.90
15656;DHT22;7928;43.614;1.456;2023-05-23T00:55:09;18.30;99.90
15656;DHT22;7928;43.614;1.456;2023-05-23T00:57:36;18.20;99.90
15656;DHT22;7928;43.614;1.456;2023-05-23T01:00:05;18.20;99.90
15656;DHT22;7928;43.614;1.456;2023-05-23T01:02:39;18.10;99.90
15656;DHT22;7928;43.614;1.456;2023-05-23T01:05:08;18.00;99.90
15656;DHT22;7928;43.614;1.456;2023-05-23T01:07:36;18.00;99.90
15656;DHT22;7928;43.614;1.456;2023-05-23T01:10:06;17.90;99.90
15656;DHT22;7928;43.614;1.456;2023-05-23T01:12:38;17.90;99.90
15656;DHT22;7928;43.614;1.456;2023-05-23T01:15:10;17.80;99.90
15656;DHT22;7928;43.614;1.456;2023-05-23T01:17:41;17.70;99.90
15656;DHT22;7928;43.614;1.456;2023-05-23T01:20:11;17.70;99.90
15656;DHT22;7928;43.614;1.456;2023-05-23T01:22:54;17.70;99.90
15656;DHT22;7928;43.614;1.456;2023-05-23T01:25:47;17.70;99.90
15656;DHT22;7928;43.614;1.456;2023-05-23T01:28:28;17.70;99.90
15656;DHT22;7928;43.614;1.456;2023-05-23T01:30:57;17.60;99.90
15656;DHT22;7928;43.614;1.456;2023-05-23T01:33:27;17.50;99.90
15656;DHT22;7928;43.614;1.456;2023-05-23T01:35:55;17.50;99.90
15656;DHT22;7928;43.614;1.456;2023-05-23T01:38:24;17.50;99.90
15656;DHT22;7928;43.614;1.456;2023-05-23T01:40:52;17.50;99.90
15656;DHT22;7928;43.614;1.456;2023-05-23T01:43:19;17.50;99.90
15656;DHT22;7928;43.614;1.456;2023-05-23T01:45:48;17.50;99.90
15656;DHT22;7928;43.614;1.456;2023-05-23T01:48:17;17.50;99.90
15656;DHT22;7928;43.614;1.456;2023-05-23T01:50:44;17.50;99.90
15656;DHT22;7928;43.614;1.456;2023-05-23T01:53:13;17.40;99.90
15656;DHT22;7928;43.614;1.456;2023-05-23T01:55:41;17.40;99.90
15656;DHT22;7928;43.614;1.456;2023-05-23T01:58:09;17.40;99.90
15656;DHT22;7928;43.614;1.456;2023-05-23T02:00:36;17.40;99.90
15656;DHT22;7928;43.614;1.456;2023-05-23T02:03:05;17.30;99.90
15656;DHT22;7928;43.614;1.456;2023-05-23T02:05:32;17.30;99.90
15656;DHT22;7928;43.614;1.456;2023-05-23T02:07:59;17.20;99.90
15656;DHT22;7928;43.614;1.456;2023-05-23T02:10:26;17.20;99.90
15656;DHT22;7928;43.614;1.456;2023-05-23T02:12:53;17.10;99.90
15656;DHT22;7928;43.614;1.456;2023-05-23T02:15:20;17.10;99.90
15656;DHT22;7928;43.614;1.456;2023-05-23T02:17:47;17.00;99.90
15656;DHT22;7928;43.614;1.456;2023-05-23T02:20:16;17.00;99.90
15656;DHT22;7928;43.614;1.456;2023-05-23T02:22:44;17.00;99.90
15656;DHT22;7928;43.614;1.456;2023-05-23T02:25:10;16.90;99.90
15656;DHT22;7928;43.614;1.456;2023-05-23T02:27:37;16.90;99.90
15656;DHT22;7928;43.614;1.456;2023-05-23T02:30:06;16.90;99.90
15656;DHT22;7928;43.614;1.456;2023-05-23T02:32:33;16.90;99.90
15656;DHT22;7928;43.614;1.456;2023-05-23T02:35:02;16.90;99.90
15656;DHT22;7928;43.614;1.456;2023-05-23T02:37:31;16.80;99.90
15656;DHT22;7928;43.614;1.456;2023-05-23T02:39:59;16.80;99.90
15656;DHT22;7928;43.614;1.456;2023-05-23T02:42:26;16.80;99.90
15656;DHT22;7928;43.614;1.456;2023-05-23T02:44:53;16.70;99.90
15656;DHT22;7928;43.614;1.456;2023-05-23T02:47:20;16.80;99.90
15656;DHT22;7928;43.614;1.456;2023-05-23T02:49:47;16.70;99.90
15656;DHT22;7928;43.614;1.456;2023-05-23T02:52:14;16.70;99.90
15656;DHT22;7928;43.614;1.456;2023-05-23T02:54:43;16.70;99.90
15656;DHT22;7928;43.614;1.456;2023-05-23T02:57:10;16.70;99.90
15656;DHT22;7928;43.614;1.456;2023-05-23T02:59:37;16.70;99.90
15656;DHT22;7928;43.614;1.456;2023-05-23T03:02:04;16.70;99.90
15656;DHT22;7928;43.614;1.456;2023-05-23T03:04:31;16.70;99.90
15656;DHT22;7928;43.614;1.456;2023-05-23T03:06:58;16.60;99.90
15656;DHT22;7928;43.614;1.456;2023-05-23T03:09:25;16.60;99.90
15656;DHT22;7928;43.614;1.456;2023-05-23T03:11:53;16.60;99.90
15656;DHT22;7928;43.614;1.456;2023-05-23T03:14:20;16.60;99.90
15656;DHT22;7928;43.614;1.456;2023-05-23T03:16:47;16.60;99.90
15656;DHT22;7928;43.614;1.456;2023-05-23T03:19:14;16.50;99.90
15656;DHT22;7928;43.614;1.456;2023-05-23T03:21:41;16.50;99.90
15656;DHT22;7928;43.614;1.456;2023-05-23T03:24:08;16.50;99.90
15656;DHT22;7928;43.614;1.456;2023-05-23T03:26:36;16.50;99.90
15656;DHT22;7928;43.614;1.456;2023-05-23T03:29:04;16.50;99.90
15656;DHT22;7928;43.614;1.456;2023-05-23T03:31:31;16.50;99.90
15656;DHT22;7928;43.614;1.456;2023-05-23T03:33:58;16.50;99.90
15656;DHT22;7928;43.614;1.456;2023-05-23T03:36:25;16.40;99.90
15656;DHT22;7928;43.614;1.456;2023-05-23T03:38:53;16.40;99.90
15656;DHT22;7928;43.614;1.456;2023-05-23T03:41:20;16.30;99.90
15656;DHT22;7928;43.614;1.456;2023-05-23T03:43:47;16.30;99.90
15656;DHT22;7928;43.614;1.456;2023-05-23T03:46:15;16.30;99.90
15656;DHT22;7928;43.614;1.456;2023-05-23T03:48:42;16.20;99.90
15656;DHT22;7928;43.614;1.456;2023-05-23T03:51:09;16.20;99.90
15656;DHT22;7928;43.614;1.456;2023-05-23T03:53:37;16.10;99.90
15656;DHT22;7928;43.614;1.456;2023-05-23T03:56:05;16.10;99.90
15656;DHT22;7928;43.614;1.456;2023-05-23T03:58:32;16.00;99.90
15656;DHT22;7928;43.614;1.456;2023-05-23T04:00:59;16.00;99.90
15656;DHT22;7928;43.614;1.456;2023-05-23T04:03:28;15.90;99.90
15656;DHT22;7928;43.614;1.456;2023-05-23T04:05:57;15.80;99.90
15656;DHT22;7928;43.614;1.456;2023-05-23T04:08:25;15.80;99.90
15656;DHT22;7928;43.614;1.456;2023-05-23T04:10:52;15.70;99.90
15656;DHT22;7928;43.614;1.456;2023-05-23T04:13:19;15.70;99.90
15656;DHT22;7928;43.614;1.456;2023-05-23T04:15:47;15.70;99.90
15656;DHT22;7928;43.614;1.456;2023-05-23T04:18:16;15.70;99.90
15656;DHT22;7928;43.614;1.456;2023-05-23T04:20:45;15.70;99.90
15656;DHT22;7928;43.614;1.456;2023-05-23T04:23:12;15.70;99.90
15656;DHT22;7928;43.614;1.456;2023-05-23T04:25:39;15.60;99.90
15656;DHT22;7928;43.614;1.456;2023-05-23T04:28:06;15.60;99.90
15656;DHT22;7928;43.614;1.456;2023-05-23T04:30:34;15.60;99.90
15656;DHT22;7928;43.614;1.456;2023-05-23T04:33:02;15.60;99.90
15656;DHT22;7928;43.614;1.456;2023-05-23T04:35:29;15.70;99.90
15656;DHT22;7928;43.614;1.456;2023-05-23T04:38:00;15.70;99.90
15656;DHT22;7928;43.614;1.456;2023-05-23T04:40:28;15.70;99.90
15656;DHT22;7928;43.614;1.456;2023-05-23T04:42:55;15.70;99.90
15656;DHT22;7928;43.614;1.456;2023-05-23T04:45:22;15.70;99.90
15656;DHT22;7928;43.614;1.456;2023-05-23T04:47:51;15.70;99.90
15656;DHT22;7928;43.614;1.456;2023-05-23T04:50:19;15.70;99.90
15656;DHT22;7928;43.614;1.456;2023-05-23T04:52:48;15.70;99.90
15656;DHT22;7928;43.614;1.456;2023-05-23T04:55:16;15.70;99.90
15656;DHT22;7928;43.614;1.456;2023-05-23T04:57:44;15.70;99.90
15656;DHT22;7928;43.614;1.456;2023-05-23T05:00:12;15.70;99.90
15656;DHT22;7928;43.614;1.456;2023-05-23T05:02:40;15.80;99.90
15656;DHT22;7928;43.614;1.456;2023-05-23T05:05:08;15.70;99.90
15656;DHT22;7928;43.614;1.456;2023-05-23T05:07:35;15.70;99.90
15656;DHT22;7928;43.614;1.456;2023-05-23T05:10:03;15.70;99.90
15656;DHT22;7928;43.614;1.456;2023-05-23T05:12:31;15.70;99.90
15656;DHT22;7928;43.614;1.456;2023-05-23T05:14:59;15.70;99.90
15656;DHT22;7928;43.614;1.456;2023-05-23T05:17:26;15.80;99.90
15656;DHT22;7928;43.614;1.456;2023-05-23T05:19:54;15.90;99.90
15656;DHT22;7928;43.614;1.456;2023-05-23T05:22:21;16.00;99.90
15656;DHT22;7928;43.614;1.456;2023-05-23T05:24:50;16.10;99.90
15656;DHT22;7928;43.614;1.456;2023-05-23T05:27:17;16.20;99.90
15656;DHT22;7928;43.614;1.456;2023-05-23T05:29:45;16.20;99.90
15656;DHT22;7928;43.614;1.456;2023-05-23T05:32:14;16.30;99.90
15656;DHT22;7928;43.614;1.456;2023-05-23T05:34:41;16.30;99.90
15656;DHT22;7928;43.614;1.456;2023-05-23T05:37:08;16.40;99.90
15656;DHT22;7928;43.614;1.456;2023-05-23T05:39:38;16.40;99.90
15656;DHT22;7928;43.614;1.456;2023-05-23T05:42:05;16.40;99.90
15656;DHT22;7928;43.614;1.456;2023-05-23T05:44:32;16.40;99.90
15656;DHT22;7928;43.614;1.456;2023-05-23T05:47:01;16.40;99.90
15656;DHT22;7928;43.614;1.456;2023-05-23T05:49:28;16.50;99.90
15656;DHT22;7928;43.614;1.456;2023-05-23T05:51:54;16.40;99.90
15656;DHT22;7928;43.614;1.456;2023-05-23T05:54:21;16.50;99.90
15656;DHT22;7928;43.614;1.456;2023-05-23T05:56:48;16.50;99.90
15656;DHT22;7928;43.614;1.456;2023-05-23T05:59:15;16.50;99.90
15656;DHT22;7928;43.614;1.456;2023-05-23T06:01:43;16.40;99.90
15656;DHT22;7928;43.614;1.456;2023-05-23T06:04:11;16.30;99.90
15656;DHT22;7928;43.614;1.456;2023-05-23T06:06:38;16.20;99.90
15656;DHT22;7928;43.614;1.456;2023-05-23T06:09:05;16.20;99.90
15656;DHT22;7928;43.614;1.456;2023-05-23T06:11:32;16.20;99.90
15656;DHT22;7928;43.614;1.456;2023-05-23T06:13:59;16.30;99.90
15656;DHT22;7928;43.614;1.456;2023-05-23T06:16:26;16.40;99.90
15656;DHT22;7928;43.614;1.456;2023-05-23T06:18:53;16.60;99.90
15656;DHT22;7928;43.614;1.456;2023-05-23T06:21:21;16.60;99.90
15656;DHT22;7928;43.614;1.456;2023-05-23T06:23:48;16.60;99.90
15656;DHT22;7928;43.614;1.456;2023-05-23T06:26:15;16.50;99.90
15656;DHT22;7928;43.614;1.456;2023-05-23T06:28:42;16.60;99.90
15656;DHT22;7928;43.614;1.456;2023-05-23T06:31:09;16.60;99.90
15656;DHT22;7928;43.614;1.456;2023-05-23T06:33:37;16.70;99.90
15656;DHT22;7928;43.614;1.456;2023-05-23T06:36:04;16.80;99.90
15656;DHT22;7928;43.614;1.456;2023-05-23T06:38:32;16.90;99.90
15656;DHT22;7928;43.614;1.456;2023-05-23T06:40:59;16.90;99.90
15656;DHT22;7928;43.614;1.456;2023-05-23T06:43:26;16.90;99.90
15656;DHT22;7928;43.614;1.456;2023-05-23T06:45:53;16.80;99.90
15656;DHT22;7928;43.614;1.456;2023-05-23T06:48:20;17.00;99.90
15656;DHT22;7928;43.614;1.456;2023-05-23T06:50:48;17.10;99.90
15656;DHT22;7928;43.614;1.456;2023-05-23T06:53:15;17.10;99.90
15656;DHT22;7928;43.614;1.456;2023-05-23T06:55:44;17.10;99.90
15656;DHT22;7928;43.614;1.456;2023-05-23T06:58:11;17.10;99.90
15656;DHT22;7928;43.614;1.456;2023-05-23T07:00:39;17.10;99.90
15656;DHT22;7928;43.614;1.456;2023-05-23T07:03:06;17.20;99.90
15656;DHT22;7928;43.614;1.456;2023-05-23T07:05:33;17.20;99.90
15656;DHT22;7928;43.614;1.456;2023-05-23T07:08:01;17.40;99.90
15656;DHT22;7928;43.614;1.456;2023-05-23T07:10:28;17.50;99.90
15656;DHT22;7928;43.614;1.456;2023-05-23T07:12:56;17.50;99.90
15656;DHT22;7928;43.614;1.456;2023-05-23T07:15:23;17.50;99.90
15656;DHT22;7928;43.614;1.456;2023-05-23T07:17:50;17.40;99.90
15656;DHT22;7928;43.614;1.456;2023-05-23T07:20:17;17.50;99.90
15656;DHT22;7928;43.614;1.456;2023-05-23T07:22:44;17.70;99.90
15656;DHT22;7928;43.614;1.456;2023-05-23T07:25:11;17.80;99.90
15656;DHT22;7928;43.614;1.456;2023-05-23T07:27:38;17.90;99.90
15656;DHT22;7928;43.614;1.456;2023-05-23T07:30:08;17.90;99.90
15656;DHT22;7928;43.614;1.456;2023-05-23T07:32:35;18.10;99.90
15656;DHT22;7928;43.614;1.456;2023-05-23T07:35:02;17.90;99.90
15656;DHT22;7928;43.614;1.456;2023-05-23T07:37:29;18.10;99.90
15656;DHT22;7928;43.614;1.456;2023-05-23T07:39:56;18.10;99.90
15656;DHT22;7928;43.614;1.456;2023-05-23T07:42:23;18.20;99.90
15656;DHT22;7928;43.614;1.456;2023-05-23T07:44:50;18.30;99.90
15656;DHT22;7928;43.614;1.456;2023-05-23T07:47:18;18.40;99.90
15656;DHT22;7928;43.614;1.456;2023-05-23T07:49:46;18.70;99.90
15656;DHT22;7928;43.614;1.456;2023-05-23T07:52:13;18.90;99.90
15656;DHT22;7928;43.614;1.456;2023-05-23T07:54:40;18.90;99.90
15656;DHT22;7928;43.614;1.456;2023-05-23T07:57:07;18.90;99.90
15656;DHT22;7928;43.614;1.456;2023-05-23T07:59:34;18.90;99.90
15656;DHT22;7928;43.614;1.456;2023-05-23T08:02:01;18.90;99.90
15656;DHT22;7928;43.614;1.456;2023-05-23T08:04:30;18.90;99.90
15656;DHT22;7928;43.614;1.456;2023-05-23T08:06:58;19.10;99.90
15656;DHT22;7928;43.614;1.456;2023-05-23T08:09:26;19.00;99.90
15656;DHT22;7928;43.614;1.456;2023-05-23T08:11:53;19.10;99.90
15656;DHT22;7928;43.614;1.456;2023-05-23T08:14:20;19.30;99.90
15656;DHT22;7928;43.614;1.456;2023-05-23T08:16:47;19.20;99.90
15656;DHT22;7928;43.614;1.456;2023-05-23T08:19:14;19.40;99.90
15656;DHT22;7928;43.614;1.456;2023-05-23T08:21:43;19.70;99.90
15656;DHT22;7928;43.614;1.456;2023-05-23T08:24:10;19.60;99.90
15656;DHT22;7928;43.614;1.456;2023-05-23T08:26:37;19.60;99.90
15656;DHT22;7928;43.614;1.456;2023-05-23T08:29:04;19.60;99.90
15656;DHT22;7928;43.614;1.456;2023-05-23T08:31:31;19.70;99.90
15656;DHT22;7928;43.614;1.456;2023-05-23T08:33:58;19.70;99.90
15656;DHT22;7928;43.614;1.456;2023-05-23T08:36:25;19.90;99.90
15656;DHT22;7928;43.614;1.456;2023-05-23T08:38:54;20.00;99.90
15656;DHT22;7928;43.614;1.456;2023-05-23T08:41:22;20.30;99.90
15656;DHT22;7928;43.614;1.456;2023-05-23T08:43:49;20.50;99.90
15656;DHT22;7928;43.614;1.456;2023-05-23T08:46:16;20.60;99.90
15656;DHT22;7928;43.614;1.456;2023-05-23T08:48:50;20.60;99.90
15656;DHT22;7928;43.614;1.456;2023-05-23T08:51:18;20.60;99.90
15656;DHT22;7928;43.614;1.456;2023-05-23T08:53:47;20.60;99.90
15656;DHT22;7928;43.614;1.456;2023-05-23T08:56:16;20.80;99.90
15656;DHT22;7928;43.614;1.456;2023-05-23T08:58:44;20.60;99.90
15656;DHT22;7928;43.614;1.456;2023-05-23T09:01:12;20.50;99.90
15656;DHT22;7928;43.614;1.456;2023-05-23T09:03:40;20.40;99.90
15656;DHT22;7928;43.614;1.456;2023-05-23T09:06:08;20.50;99.90
15656;DHT22;7928;43.614;1.456;2023-05-23T09:08:36;20.80;99.90
15656;DHT22;7928;43.614;1.456;2023-05-23T09:11:04;21.10;99.90
15656;DHT22;7928;43.614;1.456;2023-05-23T09:13:33;21.00;99.90
15656;DHT22;7928;43.614;1.456;2023-05-23T09:16:04;21.30;99.90
15656;DHT22;7928;43.614;1.456;2023-05-23T09:18:35;21.20;99.90
15656;DHT22;7928;43.614;1.456;2023-05-23T09:21:03;21.20;99.90
15656;DHT22;7928;43.614;1.456;2023-05-23T09:23:30;21.10;99.90
15656;DHT22;7928;43.614;1.456;2023-05-23T09:26:01;21.10;99.90
15656;DHT22;7928;43.614;1.456;2023-05-23T09:28:29;21.50;99.90
15656;DHT22;7928;43.614;1.456;2023-05-23T09:31:00;21.80;99.90
15656;DHT22;7928;43.614;1.456;2023-05-23T09:33:37;21.90;99.90
15656;DHT22;7928;43.614;1.456;2023-05-23T09:36:05;21.80;99.90
15656;DHT22;7928;43.614;1.456;2023-05-23T09:38:35;21.50;99.90
15656;DHT22;7928;43.614;1.456;2023-05-23T09:41:03;21.90;99.90
15656;DHT22;7928;43.614;1.456;2023-05-23T09:43:30;21.90;99.90
15656;DHT22;7928;43.614;1.456;2023-05-23T09:46:06;21.70;99.90
15656;DHT22;7928;43.614;1.456;2023-05-23T09:48:33;21.90;99.90
15656;DHT22;7928;43.614;1.456;2023-05-23T09:51:03;22.00;99.90
15656;DHT22;7928;43.614;1.456;2023-05-23T09:53:31;22.20;99.90
15656;DHT22;7928;43.614;1.456;2023-05-23T09:55:58;22.60;99.90
15656;DHT22;7928;43.614;1.456;2023-05-23T09:58:27;22.80;99.90
15656;DHT22;7928;43.614;1.456;2023-05-23T10:00:55;22.70;99.90
15656;DHT22;7928;43.614;1.456;2023-05-23T10:03:30;22.30;99.90
15656;DHT22;7928;43.614;1.456;2023-05-23T10:06:03;22.40;99.90
15656;DHT22;7928;43.614;1.456;2023-05-23T10:08:36;22.60;99.90
15656;DHT22;7928;43.614;1.456;2023-05-23T10:14:16;23.10;99.90
15656;DHT22;7928;43.614;1.456;2023-05-23T10:16:52;24.00;99.90
15656;DHT22;7928;43.614;1.456;2023-05-23T10:19:26;24.50;99.90
15656;DHT22;7928;43.614;1.456;2023-05-23T10:21:58;24.10;99.90
15656;DHT22;7928;43.614;1.456;2023-05-23T10:24:27;24.40;99.90
15656;DHT22;7928;43.614;1.456;2023-05-23T10:26:55;24.50;99.90
15656;DHT22;7928;43.614;1.456;2023-05-23T10:29:23;24.30;99.90
15656;DHT22;7928;43.614;1.456;2023-05-23T10:31:51;23.90;99.90
15656;DHT22;7928;43.614;1.456;2023-05-23T10:34:26;23.70;99.90
15656;DHT22;7928;43.614;1.456;2023-05-23T10:37:01;23.80;99.90
15656;DHT22;7928;43.614;1.456;2023-05-23T10:39:39;23.90;99.90
15656;DHT22;7928;43.614;1.456;2023-05-23T10:42:12;24.20;99.90
15656;DHT22;7928;43.614;1.456;2023-05-23T10:44:41;24.40;99.90
15656;DHT22;7928;43.614;1.456;2023-05-23T10:47:08;24.20;99.90
15656;DHT22;7928;43.614;1.456;2023-05-23T10:49:39;24.50;99.90
15656;DHT22;7928;43.614;1.456;2023-05-23T10:52:08;24.50;99.90
15656;DHT22;7928;43.614;1.456;2023-05-23T10:54:35;24.20;99.90
15656;DHT22;7928;43.614;1.456;2023-05-23T10:57:02;24.50;99.90
15656;DHT22;7928;43.614;1.456;2023-05-23T10:59:30;24.20;99.90
15656;DHT22;7928;43.614;1.456;2023-05-23T11:01:57;24.90;99.90
15656;DHT22;7928;43.614;1.456;2023-05-23T11:04:26;25.50;99.90
15656;DHT22;7928;43.614;1.456;2023-05-23T11:06:55;25.70;99.90
15656;DHT22;7928;43.614;1.456;2023-05-23T11:09:22;25.90;99.90
15656;DHT22;7928;43.614;1.456;2023-05-23T11:12:00;26.50;99.90
15656;DHT22;7928;43.614;1.456;2023-05-23T11:17:16;25.70;99.90
15656;DHT22;7928;43.614;1.456;2023-05-23T11:19:55;26.80;99.90
15656;DHT22;7928;43.614;1.456;2023-05-23T11:22:28;27.60;99.90
15656;DHT22;7928;43.614;1.456;2023-05-23T11:24:56;28.30;99.90
15656;DHT22;7928;43.614;1.456;2023-05-23T11:27:28;28.00;99.90
15656;DHT22;7928;43.614;1.456;2023-05-23T11:29:57;28.80;99.90
15656;DHT22;7928;43.614;1.456;2023-05-23T11:32:27;29.90;99.90
15656;DHT22;7928;43.614;1.456;2023-05-23T11:34:55;30.50;99.90
15656;DHT22;7928;43.614;1.456;2023-05-23T11:37:24;31.00;99.90
15656;DHT22;7928;43.614;1.456;2023-05-23T11:39:53;30.10;99.90
15656;DHT22;7928;43.614;1.456;2023-05-23T11:42:21;29.70;99.90
15656;DHT22;7928;43.614;1.456;2023-05-23T11:44:49;29.00;99.90
15656;DHT22;7928;43.614;1.456;2023-05-23T11:47:16;28.30;99.90
15656;DHT22;7928;43.614;1.456;2023-05-23T11:49:45;27.80;99.90
15656;DHT22;7928;43.614;1.456;2023-05-23T11:52:12;28.20;99.90
15656;DHT22;7928;43.614;1.456;2023-05-23T11:54:40;28.40;99.90
15656;DHT22;7928;43.614;1.456;2023-05-23T11:57:09;30.00;99.90
15656;DHT22;7928;43.614;1.456;2023-05-23T11:59:37;29.20;99.90
15656;DHT22;7928;43.614;1.456;2023-05-23T12:02:05;29.40;99.90
15656;DHT22;7928;43.614;1.456;2023-05-23T12:04:33;30.20;99.90
15656;DHT22;7928;43.614;1.456;2023-05-23T12:07:04;29.90;99.90
15656;DHT22;7928;43.614;1.456;2023-05-23T12:09:31;30.60;99.90
15656;DHT22;7928;43.614;1.456;2023-05-23T12:11:58;31.00;99.90
15656;DHT22;7928;43.614;1.456;2023-05-23T12:14:28;30.40;99.90
15656;DHT22;7928;43.614;1.456;2023-05-23T12:16:55;31.20;99.90
15656;DHT22;7928;43.614;1.456;2023-05-23T12:19:23;31.90;99.90
15656;DHT22;7928;43.614;1.456;2023-05-23T12:21:50;32.00;99.90
15656;DHT22;7928;43.614;1.456;2023-05-23T12:24:18;32.30;99.90
15656;DHT22;7928;43.614;1.456;2023-05-23T12:26:49;33.20;99.90
15656;DHT22;7928;43.614;1.456;2023-05-23T12:29:20;32.50;99.90
15656;DHT22;7928;43.614;1.456;2023-05-23T12:31:50;32.90;99.90
15656;DHT22;7928;43.614;1.456;2023-05-23T12:34:18;33.00;99.90
15656;DHT22;7928;43.614;1.456;2023-05-23T12:36:45;31.00;99.90
15656;DHT22;7928;43.614;1.456;2023-05-23T12:39:14;31.10;99.90
15656;DHT22;7928;43.614;1.456;2023-05-23T12:41:41;31.80;99.90
15656;DHT22;7928;43.614;1.456;2023-05-23T12:44:10;32.90;99.90
15656;DHT22;7928;43.614;1.456;2023-05-23T12:46:41;33.20;99.90
15656;DHT22;7928;43.614;1.456;2023-05-23T12:49:09;34.30;99.90
15656;DHT22;7928;43.614;1.456;2023-05-23T12:51:36;35.40;99.90
15656;DHT22;7928;43.614;1.456;2023-05-23T12:54:03;36.10;99.90
15656;DHT22;7928;43.614;1.456;2023-05-23T12:56:30;35.60;98.90
15656;DHT22;7928;43.614;1.456;2023-05-23T12:58:57;35.20;98.80
15656;DHT22;7928;43.614;1.456;2023-05-23T13:01:26;34.90;99.20
15656;DHT22;7928;43.614;1.456;2023-05-23T13:03:53;34.00;99.80
15656;DHT22;7928;43.614;1.456;2023-05-23T13:06:21;33.60;99.60
15656;DHT22;7928;43.614;1.456;2023-05-23T13:08:48;33.30;99.90
15656;DHT22;7928;43.614;1.456;2023-05-23T13:11:16;33.60;99.90
15656;DHT22;7928;43.614;1.456;2023-05-23T13:13:43;34.60;99.50
15656;DHT22;7928;43.614;1.456;2023-05-23T13:16:11;34.90;98.80
15656;DHT22;7928;43.614;1.456;2023-05-23T13:18:38;34.60;98.10
15656;DHT22;7928;43.614;1.456;2023-05-23T13:21:05;34.20;98.40
15656;DHT22;7928;43.614;1.456;2023-05-23T13:23:33;33.70;98.50
15656;DHT22;7928;43.614;1.456;2023-05-23T13:26:02;33.80;98.80
15656;DHT22;7928;43.614;1.456;2023-05-23T13:28:29;34.30;98.40
15656;DHT22;7928;43.614;1.456;2023-05-23T13:30:56;33.90;98.10
15656;DHT22;7928;43.614;1.456;2023-05-23T13:33:23;34.30;98.20
15656;DHT22;7928;43.614;1.456;2023-05-23T13:35:50;34.30;98.20
15656;DHT22;7928;43.614;1.456;2023-05-23T13:38:18;33.40;98.00
15656;DHT22;7928;43.614;1.456;2023-05-23T13:40:46;33.40;99.10
15656;DHT22;7928;43.614;1.456;2023-05-23T13:43:16;33.40;98.50
15656;DHT22;7928;43.614;1.456;2023-05-23T13:45:43;32.60;99.70
15656;DHT22;7928;43.614;1.456;2023-05-23T13:48:11;31.90;99.90
15656;DHT22;7928;43.614;1.456;2023-05-23T13:50:38;31.80;99.90
15656;DHT22;7928;43.614;1.456;2023-05-23T13:53:05;32.40;99.90
15656;DHT22;7928;43.614;1.456;2023-05-23T13:55:39;32.70;99.70
15656;DHT22;7928;43.614;1.456;2023-05-23T13:58:07;33.20;99.50
15656;DHT22;7928;43.614;1.456;2023-05-23T14:00:34;33.20;98.70
15656;DHT22;7928;43.614;1.456;2023-05-23T14:03:02;33.10;99.90
15656;DHT22;7928;43.614;1.456;2023-05-23T14:05:29;32.40;99.50
15656;DHT22;7928;43.614;1.456;2023-05-23T14:07:56;31.50;99.90
15656;DHT22;7928;43.614;1.456;2023-05-23T14:10:23;31.10;99.90
15656;DHT22;7928;43.614;1.456;2023-05-23T14:12:50;30.60;99.90
15656;DHT22;7928;43.614;1.456;2023-05-23T14:15:19;30.40;99.90
15656;DHT22;7928;43.614;1.456;2023-05-23T14:17:46;30.20;99.90
15656;DHT22;7928;43.614;1.456;2023-05-23T14:20:13;29.80;99.90
15656;DHT22;7928;43.614;1.456;2023-05-23T14:22:40;29.70;99.90
15656;DHT22;7928;43.614;1.456;2023-05-23T14:25:08;29.60;99.90
15656;DHT22;7928;43.614;1.456;2023-05-23T14:27:35;29.70;99.90
15656;DHT22;7928;43.614;1.456;2023-05-23T14:30:02;30.00;99.90
15656;DHT22;7928;43.614;1.456;2023-05-23T14:32:31;30.90;99.90
15656;DHT22;7928;43.614;1.456;2023-05-23T14:35:03;32.20;99.90
15656;DHT22;7928;43.614;1.456;2023-05-23T14:37:30;33.10;99.90
15656;DHT22;7928;43.614;1.456;2023-05-23T14:39:57;33.60;99.60
15656;DHT22;7928;43.614;1.456;2023-05-23T14:42:25;33.70;98.90
15656;DHT22;7928;43.614;1.456;2023-05-23T14:44:52;33.80;98.40
15656;DHT22;7928;43.614;1.456;2023-05-23T14:47:19;33.60;98.10
15656;DHT22;7928;43.614;1.456;2023-05-23T14:49:49;33.60;98.50
15656;DHT22;7928;43.614;1.456;2023-05-23T14:52:16;33.70;97.30
15656;DHT22;7928;43.614;1.456;2023-05-23T14:54:43;33.60;97.80
15656;DHT22;7928;43.614;1.456;2023-05-23T14:57:10;33.40;97.50
15656;DHT22;7928;43.614;1.456;2023-05-23T14:59:37;33.00;97.90
15656;DHT22;7928;43.614;1.456;2023-05-23T15:02:04;32.80;97.90
15656;DHT22;7928;43.614;1.456;2023-05-23T15:04:32;32.70;98.20
15656;DHT22;7928;43.614;1.456;2023-05-23T15:07:01;32.70;99.10
15656;DHT22;7928;43.614;1.456;2023-05-23T15:09:28;32.70;99.40
15656;DHT22;7928;43.614;1.456;2023-05-23T15:11:55;32.50;99.20
15656;DHT22;7928;43.614;1.456;2023-05-23T15:14:22;32.40;99.70
15656;DHT22;7928;43.614;1.456;2023-05-23T15:16:54;32.10;99.80
15656;DHT22;7928;43.614;1.456;2023-05-23T15:19:21;31.90;99.50
15656;DHT22;7928;43.614;1.456;2023-05-23T15:21:48;31.70;99.90
15656;DHT22;7928;43.614;1.456;2023-05-23T15:24:16;31.10;99.90
15656;DHT22;7928;43.614;1.456;2023-05-23T15:26:43;30.90;99.90
15656;DHT22;7928;43.614;1.456;2023-05-23T15:29:10;30.60;99.90
15656;DHT22;7928;43.614;1.456;2023-05-23T15:31:39;30.70;99.90
15656;DHT22;7928;43.614;1.456;2023-05-23T15:34:07;30.90;99.90
15656;DHT22;7928;43.614;1.456;2023-05-23T15:36:34;31.20;99.90
15656;DHT22;7928;43.614;1.456;2023-05-23T15:39:01;31.10;99.90
15656;DHT22;7928;43.614;1.456;2023-05-23T15:41:29;31.20;99.90
15656;DHT22;7928;43.614;1.456;2023-05-23T15:43:56;31.40;99.90
15656;DHT22;7928;43.614;1.456;2023-05-23T15:46:23;31.40;99.90
15656;DHT22;7928;43.614;1.456;2023-05-23T15:48:50;31.30;99.90
15656;DHT22;7928;43.614;1.456;2023-05-23T15:51:17;30.90;99.90
15656;DHT22;7928;43.614;1.456;2023-05-23T15:53:44;30.70;99.90
15656;DHT22;7928;43.614;1.456;2023-05-23T15:56:11;30.30;99.90